createdAt,value
2022-08-12T00:00:02.544Z,20.84
2022-08-12T00:02:48.513Z,20.80
2022-08-12T00:05:35.220Z,20.86
2022-08-12T00:08:28.713Z,20.72
2022-08-12T00:11:20.956Z,20.84
2022-08-12T00:14:06.030Z,20.65
2022-08-12T00:16:51.859Z,20.59
2022-08-12T00:19:37.266Z,20.66
2022-08-12T00:22:22.946Z,20.53
2022-08-12T00:25:08.215Z,20.42
2022-08-12T00:27:53.477Z,20.48
2022-08-12T00:30:38.924Z,20.33
2022-08-12T00:33:25.610Z,20.46
2022-08-12T00:36:34.986Z,20.48
2022-08-12T00:39:22.477Z,20.42
2022-08-12T00:42:08.750Z,20.29
2022-08-12T00:44:35.409Z,20.47
2022-08-12T00:47:03.420Z,20.39
2022-08-12T00:49:31.143Z,20.22
2022-08-12T00:52:06.420Z,20.27
2022-08-12T00:54:43.571Z,20.25
2022-08-12T00:57:21.041Z,20.41
2022-08-12T00:59:59.771Z,20.35
2022-08-12T01:02:27.775Z,20.27
2022-08-12T01:05:17.139Z,20.29
2022-08-12T01:08:03.586Z,20.26
2022-08-12T01:10:51.667Z,20.17
2022-08-12T01:13:20.044Z,20.27
2022-08-12T01:15:52.801Z,20.25
2022-08-12T01:18:21.236Z,20.19
2022-08-12T01:20:53.967Z,20.23
2022-08-12T01:23:58.817Z,20.29
2022-08-12T01:26:25.875Z,20.27
2022-08-12T01:28:58.925Z,20.16
2022-08-12T01:31:27.763Z,20.13
2022-08-12T01:34:05.268Z,20.08
2022-08-12T01:37:00.757Z,19.99
2022-08-12T01:39:33.998Z,19.97
2022-08-12T01:42:05.066Z,19.95
2022-08-12T01:44:34.052Z,19.90
2022-08-12T01:47:33.113Z,20.03
2022-08-12T01:50:08.759Z,20.10
2022-08-12T01:52:41.615Z,20.10
2022-08-12T01:55:13.688Z,19.91
2022-08-12T01:57:58.298Z,19.91
2022-08-12T02:00:43.509Z,19.85
2022-08-12T02:03:52.536Z,19.83
2022-08-12T02:07:07.028Z,19.83
2022-08-12T02:10:50.970Z,19.84
2022-08-12T02:13:48.886Z,19.63
2022-08-12T02:16:36.413Z,19.49
2022-08-12T02:19:28.631Z,19.69
2022-08-12T02:22:12.961Z,19.66
2022-08-12T02:24:42.538Z,19.64
2022-08-12T02:27:12.804Z,19.76
2022-08-12T02:29:40.774Z,19.74
2022-08-12T02:32:08.944Z,19.67
2022-08-12T02:34:36.821Z,19.50
2022-08-12T02:37:04.323Z,19.47
2022-08-12T02:39:34.161Z,19.34
2022-08-12T02:42:04.018Z,19.31
2022-08-12T02:44:35.729Z,19.41
2022-08-12T02:47:06.523Z,19.38
2022-08-12T02:49:39.963Z,19.25
2022-08-12T02:52:08.008Z,19.09
2022-08-12T02:54:35.792Z,19.10
2022-08-12T02:57:02.637Z,19.11
2022-08-12T02:59:30.610Z,18.95
2022-08-12T03:02:03.967Z,18.98
2022-08-12T03:04:41.459Z,19.00
2022-08-12T03:07:14.719Z,18.99
2022-08-12T03:10:04.170Z,18.90
2022-08-12T03:12:40.062Z,18.78
2022-08-12T03:15:18.244Z,18.70
2022-08-12T03:18:25.647Z,18.78
2022-08-12T03:20:53.791Z,18.78
2022-08-12T03:23:28.966Z,18.68
2022-08-12T03:26:00.899Z,18.72
2022-08-12T03:28:49.587Z,18.69
2022-08-12T03:31:22.752Z,18.63
2022-08-12T03:34:00.583Z,18.46
2022-08-12T03:36:31.257Z,18.48
2022-08-12T03:39:18.206Z,18.49
2022-08-12T03:41:55.219Z,18.41
2022-08-12T03:44:50.931Z,18.40
2022-08-12T03:47:52.933Z,18.32
2022-08-12T03:50:40.103Z,18.29
2022-08-12T03:53:29.253Z,18.24
2022-08-12T03:56:15.280Z,18.14
2022-08-12T03:59:00.698Z,18.13
2022-08-12T04:01:27.751Z,18.17
2022-08-12T04:03:55.099Z,18.35
2022-08-12T04:06:34.727Z,18.25
2022-08-12T04:09:14.440Z,18.20
2022-08-12T04:12:01.147Z,18.22
2022-08-12T04:14:28.254Z,18.20
2022-08-12T04:16:57.192Z,18.14
2022-08-12T04:19:25.181Z,18.04
2022-08-12T04:22:02.631Z,18.06
2022-08-12T04:24:35.603Z,18.04
2022-08-12T04:27:05.770Z,18.13
2022-08-12T04:30:29.149Z,17.98
2022-08-12T04:32:19.426Z,17.91
2022-08-12T04:34:46.321Z,18.00
2022-08-12T04:37:13.518Z,18.09
2022-08-12T04:39:40.831Z,18.02
2022-08-12T04:42:07.848Z,18.09
2022-08-12T04:44:34.480Z,18.16
2022-08-12T04:47:01.202Z,18.13
2022-08-12T04:49:28.720Z,18.10
2022-08-12T04:51:59.091Z,17.98
2022-08-12T04:54:27.464Z,17.99
2022-08-12T04:57:04.526Z,18.10
2022-08-12T04:59:46.746Z,18.04
2022-08-12T05:02:21.197Z,18.03
2022-08-12T05:04:56.237Z,18.07
2022-08-12T05:07:27.791Z,18.32
2022-08-12T05:09:59.780Z,18.39
2022-08-12T05:12:34.884Z,18.52
2022-08-12T05:15:02.037Z,18.60
2022-08-12T05:17:28.804Z,18.62
2022-08-12T05:19:57.450Z,18.77
2022-08-12T05:22:27.434Z,18.60
2022-08-12T05:24:54.320Z,18.59
2022-08-12T05:27:22.996Z,18.64
2022-08-12T05:30:06.438Z,18.62
2022-08-12T05:32:36.841Z,18.75
2022-08-12T05:35:06.955Z,18.84
2022-08-12T05:37:38.073Z,18.99
2022-08-12T05:40:10.919Z,19.04
2022-08-12T05:42:42.212Z,18.96
2022-08-12T05:45:09.705Z,19.17
2022-08-12T05:47:53.372Z,19.17
2022-08-12T05:50:21.164Z,19.15
2022-08-12T05:52:49.570Z,19.35
2022-08-12T05:55:20.760Z,19.51
2022-08-12T05:57:53.543Z,19.60
2022-08-12T06:00:21.906Z,19.70
2022-08-12T06:02:48.517Z,19.68
2022-08-12T06:05:15.199Z,19.88
2022-08-12T06:08:02.309Z,19.89
2022-08-12T06:10:33.390Z,19.98
2022-08-12T06:13:02.612Z,19.96
2022-08-12T06:15:29.753Z,20.10
2022-08-12T06:18:11.440Z,20.26
2022-08-12T06:20:41.461Z,20.17
2022-08-12T06:23:10.716Z,20.28
2022-08-12T06:25:37.513Z,20.35
2022-08-12T06:28:14.354Z,20.34
2022-08-12T06:30:41.330Z,20.64
2022-08-12T06:33:21.495Z,20.60
2022-08-12T06:35:51.855Z,20.65
2022-08-12T06:38:22.087Z,20.66
2022-08-12T06:41:10.810Z,20.67
2022-08-12T06:44:04.911Z,20.65
2022-08-12T06:46:26.269Z,20.83
2022-08-12T06:48:59.067Z,20.87
2022-08-12T06:51:32.368Z,21.15
2022-08-12T06:54:01.103Z,21.18
2022-08-12T06:56:59.549Z,21.15
2022-08-12T06:59:15.810Z,21.32
2022-08-12T07:01:51.316Z,21.36
2022-08-12T07:04:37.235Z,21.33
2022-08-12T07:07:09.013Z,21.32
2022-08-12T07:10:01.193Z,21.26
2022-08-12T07:12:22.898Z,21.48
2022-08-12T07:14:53.852Z,21.62
2022-08-12T07:17:20.426Z,21.68
2022-08-12T07:19:48.675Z,21.57
2022-08-12T07:22:16.539Z,21.71
2022-08-12T07:24:43.476Z,21.71
2022-08-12T07:27:10.208Z,21.86
2022-08-12T07:29:58.228Z,22.01
2022-08-12T07:32:25.624Z,22.12
2022-08-12T07:34:56.884Z,21.90
2022-08-12T07:37:23.648Z,22.02
2022-08-12T07:39:59.108Z,22.29
2022-08-12T07:42:27.949Z,22.27
2022-08-12T07:44:55.990Z,22.25
2022-08-12T07:47:23.475Z,22.23
2022-08-12T07:50:04.559Z,22.29
2022-08-12T07:52:42.217Z,22.43
2022-08-12T07:55:10.290Z,22.43
2022-08-12T07:57:59.522Z,22.47
2022-08-12T08:00:36.188Z,22.59
2022-08-12T08:03:03.017Z,22.81
2022-08-12T08:05:46.393Z,22.79
2022-08-12T08:08:19.047Z,22.82
2022-08-12T08:10:46.620Z,22.81
2022-08-12T08:13:13.707Z,22.95
2022-08-12T08:18:28.905Z,22.99
2022-08-12T08:20:57.124Z,23.19
2022-08-12T08:23:46.508Z,23.36
2022-08-12T08:26:15.767Z,23.45
2022-08-12T08:28:43.176Z,23.22
2022-08-12T08:31:09.786Z,23.35
2022-08-12T08:34:05.200Z,23.59
2022-08-12T08:36:23.961Z,23.80
2022-08-12T08:38:53.270Z,23.81
2022-08-12T08:42:17.883Z,23.95
2022-08-12T08:44:30.562Z,23.78
2022-08-12T08:46:57.395Z,24.11
2022-08-12T08:49:25.115Z,23.99
2022-08-12T08:51:51.755Z,23.97
2022-08-12T08:54:18.398Z,24.18
2022-08-12T08:56:49.983Z,24.26
2022-08-12T08:59:22.431Z,24.53
2022-08-12T09:01:49.472Z,24.12
2022-08-12T09:05:13.155Z,24.42
2022-08-12T09:10:02.883Z,24.48
2022-08-12T09:13:07.814Z,24.48
2022-08-12T09:15:56.007Z,24.67
2022-08-12T09:18:26.642Z,24.80
2022-08-12T09:20:57.752Z,24.80
2022-08-12T09:24:00.123Z,24.84
2022-08-12T09:26:18.956Z,25.24
2022-08-12T09:28:53.229Z,25.05
2022-08-12T09:32:05.829Z,25.00
2022-08-12T09:34:31.332Z,25.17
2022-08-12T09:37:01.499Z,25.27
2022-08-12T09:40:01.937Z,25.23
2022-08-12T09:42:42.643Z,25.31
2022-08-12T09:45:24.081Z,25.19
2022-08-12T09:48:09.149Z,25.39
2022-08-12T09:50:36.787Z,25.56
2022-08-12T09:53:16.445Z,25.62
2022-08-12T09:56:05.543Z,25.54
2022-08-12T09:58:58.061Z,25.56
2022-08-12T10:01:24.472Z,25.81
2022-08-12T10:04:03.463Z,25.83
2022-08-12T10:06:35.805Z,25.91
2022-08-12T10:09:06.787Z,25.99
2022-08-12T10:12:10.858Z,25.89
2022-08-12T10:14:39.372Z,25.74
2022-08-12T10:17:18.657Z,26.03
2022-08-12T10:19:51.609Z,26.13
2022-08-12T10:22:39.520Z,26.13
2022-08-12T10:26:38.185Z,26.01
2022-08-12T10:28:31.174Z,26.05
2022-08-12T10:30:59.523Z,26.14
2022-08-12T10:33:30.631Z,26.14
2022-08-12T10:35:59.848Z,26.20
2022-08-12T10:38:37.926Z,26.28
2022-08-12T10:41:57.941Z,26.49
2022-08-12T10:44:17.442Z,26.78
2022-08-12T10:46:50.254Z,26.56
2022-08-12T10:50:02.537Z,26.31
2022-08-12T10:52:34.725Z,26.52
2022-08-12T10:54:56.004Z,26.82
2022-08-12T10:58:14.095Z,26.81
2022-08-12T11:00:31.165Z,26.49
2022-08-12T11:04:31.667Z,26.39
2022-08-12T11:07:07.813Z,26.36
2022-08-12T11:08:43.654Z,26.68
2022-08-12T11:11:18.155Z,26.61
2022-08-12T11:14:05.834Z,26.66
2022-08-12T11:16:33.431Z,26.95
2022-08-12T11:19:05.597Z,27.10
2022-08-12T11:21:58.166Z,26.84
2022-08-12T11:24:30.314Z,26.78
2022-08-12T11:27:01.007Z,26.82
2022-08-12T11:30:05.748Z,26.84
2022-08-12T11:32:15.673Z,26.68
2022-08-12T11:34:52.622Z,26.89
2022-08-12T11:37:26.172Z,26.84
2022-08-12T11:42:35.683Z,27.19
2022-08-12T11:45:05.082Z,27.11
2022-08-12T11:47:31.817Z,26.80
2022-08-12T11:49:58.434Z,26.98
2022-08-12T11:52:53.914Z,27.16
2022-08-12T11:55:14.979Z,27.08
2022-08-12T11:58:34.031Z,27.35
2022-08-12T12:03:43.807Z,27.24
2022-08-12T12:06:17.355Z,27.21
2022-08-12T12:08:50.911Z,27.59
2022-08-12T12:11:20.094Z,27.47
2022-08-12T12:14:07.577Z,27.53
2022-08-12T12:16:37.955Z,27.58
2022-08-12T12:19:11.424Z,27.42
2022-08-12T12:21:48.238Z,27.33
2022-08-12T12:24:21.108Z,27.39
2022-08-12T12:27:00.160Z,27.13
2022-08-12T12:30:18.102Z,27.51
2022-08-12T12:32:29.473Z,27.68
2022-08-12T12:35:17.839Z,27.61
2022-08-12T12:38:05.527Z,27.59
2022-08-12T12:40:40.878Z,27.77
2022-08-12T12:43:08.513Z,27.94
2022-08-12T12:45:36.871Z,27.89
2022-08-12T12:48:09.620Z,28.07
2022-08-12T12:50:45.570Z,28.20
2022-08-12T12:54:06.227Z,28.14
2022-08-12T12:56:15.473Z,28.31
2022-08-12T12:58:43.317Z,28.32
2022-08-12T13:01:26.525Z,28.10
2022-08-12T13:04:02.436Z,28.09
2022-08-12T13:06:31.493Z,28.08
2022-08-12T13:09:03.641Z,28.25
2022-08-12T13:11:32.719Z,28.24
2022-08-12T13:14:12.892Z,28.43
2022-08-12T13:16:55.255Z,28.66
2022-08-12T13:19:36.760Z,28.32
2022-08-12T13:22:18.508Z,28.63
2022-08-12T13:24:46.052Z,28.22
2022-08-12T13:27:20.775Z,28.48
2022-08-12T13:29:47.457Z,28.39
2022-08-12T13:32:19.055Z,28.49
2022-08-12T13:35:04.251Z,28.32
2022-08-12T13:37:55.851Z,28.69
2022-08-12T13:40:33.536Z,28.40
2022-08-12T13:43:01.973Z,28.53
2022-08-12T13:45:30.386Z,28.82
2022-08-12T13:48:02.100Z,28.44
2022-08-12T13:50:37.479Z,28.50
2022-08-12T13:53:24.404Z,28.86
2022-08-12T13:56:01.182Z,28.97
2022-08-12T13:58:30.698Z,28.89
2022-08-12T14:00:58.462Z,28.64
2022-08-12T14:03:28.302Z,29.01
2022-08-12T14:06:15.246Z,28.70
2022-08-12T14:08:42.808Z,29.01
2022-08-12T14:11:10.004Z,28.91
2022-08-12T14:14:04.663Z,28.89
2022-08-12T14:16:37.347Z,29.34
2022-08-12T14:19:22.778Z,29.40
2022-08-12T14:22:00.526Z,29.29
2022-08-12T14:24:41.237Z,29.25
2022-08-12T14:27:10.424Z,29.49
2022-08-12T14:30:04.483Z,29.67
2022-08-12T14:32:35.311Z,29.30
2022-08-12T14:35:09.286Z,29.76
2022-08-12T14:37:55.489Z,30.21
2022-08-12T14:40:29.596Z,30.25
2022-08-12T14:43:00.904Z,29.64
2022-08-12T14:45:45.442Z,30.58
2022-08-12T14:48:16.570Z,30.17
2022-08-12T14:51:09.568Z,31.40
2022-08-12T14:59:57.420Z,35.53
2022-08-12T15:02:19.657Z,36.98
2022-08-12T15:04:48.411Z,36.14
2022-08-12T15:07:34.109Z,36.68
2022-08-12T15:10:04.232Z,36.71
2022-08-12T15:12:32.580Z,36.59
2022-08-12T15:14:59.918Z,36.00
2022-08-12T15:17:37.848Z,38.06
2022-08-12T15:20:31.832Z,38.40
2022-08-12T15:22:54.135Z,38.54
2022-08-12T15:25:21.100Z,39.29
2022-08-12T15:28:05.171Z,38.64
2022-08-12T15:30:34.907Z,38.76
2022-08-12T15:33:12.584Z,39.40
2022-08-12T15:35:53.039Z,41.45
2022-08-12T15:38:27.406Z,40.61
2022-08-12T15:40:56.491Z,40.83
2022-08-12T15:43:51.993Z,39.60
2022-08-12T15:46:21.283Z,39.71
2022-08-12T15:48:52.472Z,38.55
2022-08-12T15:51:58.402Z,37.02
2022-08-12T15:54:35.231Z,37.72
2022-08-12T15:57:08.001Z,37.70
2022-08-12T16:00:00.369Z,35.82
2022-08-12T16:02:27.132Z,36.60
2022-08-12T16:04:54.304Z,36.23
2022-08-12T16:07:29.952Z,36.19
2022-08-12T16:10:06.237Z,36.25
2022-08-12T16:12:39.733Z,37.01
2022-08-12T16:15:08.443Z,35.14
2022-08-12T16:18:20.140Z,36.28
2022-08-12T16:20:33.145Z,38.46
2022-08-12T16:23:21.403Z,36.82
2022-08-12T16:26:05.581Z,37.24
2022-08-12T16:28:33.143Z,36.94
2022-08-12T16:31:00.357Z,39.68
2022-08-12T16:33:56.861Z,37.63
2022-08-12T16:36:30.471Z,36.16
2022-08-12T16:39:01.278Z,37.76
2022-08-12T16:41:38.109Z,37.00
2022-08-12T16:44:08.269Z,35.15
2022-08-12T16:46:36.286Z,35.93
2022-08-12T16:49:13.962Z,31.43
2022-08-12T16:51:46.700Z,29.76
2022-08-12T16:54:19.045Z,29.32
2022-08-12T16:56:55.422Z,28.90
2022-08-12T16:59:26.420Z,28.52
2022-08-12T17:02:31.112Z,27.93
2022-08-12T17:04:59.862Z,27.85
2022-08-12T17:07:43.296Z,27.90
2022-08-12T17:10:18.172Z,27.62
2022-08-12T17:12:45.216Z,27.39
2022-08-12T17:15:51.366Z,27.36
2022-08-12T17:18:42.274Z,27.29
2022-08-12T17:20:50.361Z,27.09
2022-08-12T17:23:19.294Z,27.06
2022-08-12T17:25:52.903Z,27.06
2022-08-12T17:28:22.681Z,26.74
2022-08-12T17:30:59.786Z,26.63
2022-08-12T17:33:27.545Z,26.76
2022-08-12T17:35:58.526Z,26.38
2022-08-12T17:38:28.074Z,26.36
2022-08-12T17:40:55.504Z,26.25
2022-08-12T17:43:52.221Z,26.40
2022-08-12T17:46:12.798Z,26.38
2022-08-12T17:48:55.039Z,26.13
2022-08-12T17:51:24.501Z,26.07
2022-08-12T17:54:11.158Z,26.18
2022-08-12T17:56:43.151Z,26.19
2022-08-12T17:59:12.416Z,25.96
2022-08-12T18:01:45.165Z,25.85
2022-08-12T18:04:22.967Z,25.69
2022-08-12T18:07:01.760Z,25.62
2022-08-12T18:09:35.972Z,25.72
2022-08-12T18:12:24.569Z,25.63
2022-08-12T18:15:01.239Z,25.33
2022-08-12T18:17:29.612Z,25.20
2022-08-12T18:20:05.843Z,25.26
2022-08-12T18:22:36.429Z,25.18
2022-08-12T18:25:14.357Z,24.94
2022-08-12T18:28:16.940Z,24.88
2022-08-12T18:30:52.965Z,24.79
2022-08-12T18:33:25.552Z,24.76
2022-08-12T18:35:55.498Z,24.48
2022-08-12T18:38:25.388Z,24.62
2022-08-12T18:41:21.591Z,24.43
2022-08-12T18:44:00.031Z,24.25
2022-08-12T18:46:32.201Z,23.99
2022-08-12T18:49:17.646Z,23.85
2022-08-12T18:52:02.443Z,23.57
2022-08-12T18:54:36.028Z,23.46
2022-08-12T18:57:15.479Z,23.31
2022-08-12T19:00:00.710Z,23.24
2022-08-12T19:02:39.022Z,23.01
2022-08-12T19:05:11.701Z,22.98
2022-08-12T19:07:49.718Z,22.89
2022-08-12T19:10:27.896Z,22.72
2022-08-12T19:13:23.879Z,22.80
2022-08-12T19:15:58.219Z,22.85
2022-08-12T19:18:29.582Z,22.75
2022-08-12T19:21:06.270Z,22.71
2022-08-12T19:23:39.273Z,22.40
2022-08-12T19:26:10.596Z,22.44
2022-08-12T19:28:39.749Z,22.40
2022-08-12T19:31:56.387Z,22.17
2022-08-12T19:38:02.602Z,21.97
2022-08-12T19:40:20.138Z,22.13
2022-08-12T19:43:19.107Z,21.94
2022-08-12T19:45:50.868Z,22.08
2022-08-12T19:48:19.758Z,22.11
2022-08-12T19:50:50.078Z,22.15
2022-08-12T19:53:20.316Z,22.07
2022-08-12T19:55:52.705Z,22.11
2022-08-12T19:58:20.529Z,22.02
2022-08-12T20:00:53.303Z,21.80
2022-08-12T20:03:38.326Z,21.91
2022-08-12T20:06:13.969Z,21.78
2022-08-12T20:08:48.641Z,21.57
2022-08-12T20:12:13.644Z,21.50
2022-08-12T20:14:09.248Z,21.35
2022-08-12T20:19:52.344Z,21.00
2022-08-12T20:22:24.368Z,21.06
2022-08-12T20:24:56.911Z,21.12
2022-08-12T20:27:53.668Z,21.10
2022-08-12T20:30:13.703Z,20.97
2022-08-12T20:33:00.941Z,20.89
2022-08-12T20:36:06.223Z,20.67
2022-08-12T20:38:26.430Z,20.54
2022-08-12T20:40:54.544Z,20.37
2022-08-12T20:43:24.208Z,20.46
2022-08-12T20:45:57.229Z,20.40
2022-08-12T20:48:28.548Z,20.37
2022-08-12T20:50:57.840Z,20.28
2022-08-12T20:53:33.218Z,20.28
2022-08-12T20:56:38.765Z,20.28
2022-08-12T20:59:14.853Z,20.20
2022-08-12T21:01:48.646Z,20.22
2022-08-12T21:04:36.026Z,20.05
2022-08-12T21:07:09.486Z,20.08
2022-08-12T21:09:44.594Z,20.04
2022-08-12T21:12:28.572Z,19.94
2022-08-12T21:15:24.336Z,20.04
2022-08-12T21:18:10.933Z,19.85
2022-08-12T21:20:55.823Z,19.80
2022-08-12T21:23:23.272Z,19.59
2022-08-12T21:25:53.826Z,19.53
2022-08-12T21:28:22.476Z,19.24
2022-08-12T21:31:11.298Z,19.10
2022-08-12T21:33:58.920Z,18.94
2022-08-12T21:36:35.025Z,18.80
2022-08-12T21:39:19.277Z,18.79
2022-08-12T21:41:50.076Z,18.44
2022-08-12T21:44:23.965Z,18.47
2022-08-12T21:47:20.165Z,17.95
2022-08-12T21:50:02.232Z,18.20
2022-08-12T21:52:34.465Z,17.98
2022-08-12T21:55:08.086Z,18.14
2022-08-12T21:57:53.290Z,18.15
2022-08-12T22:00:22.035Z,18.14
2022-08-12T22:03:07.894Z,18.00
2022-08-12T22:05:53.323Z,17.98
2022-08-12T22:08:22.041Z,17.96
2022-08-12T22:10:52.351Z,17.71
2022-08-12T22:14:07.299Z,17.58
2022-08-12T22:16:06.744Z,17.63
2022-08-12T22:18:33.389Z,17.54
2022-08-12T22:21:00.092Z,17.36
2022-08-12T22:23:51.298Z,17.33
2022-08-12T22:26:15.953Z,17.18
2022-08-12T22:29:17.253Z,17.28
2022-08-12T22:31:45.864Z,17.40
2022-08-12T22:34:18.281Z,17.39
2022-08-12T22:36:45.776Z,17.41
2022-08-12T22:39:15.947Z,17.32
2022-08-12T22:42:01.966Z,17.28
2022-08-12T22:44:54.118Z,17.26
2022-08-12T22:47:45.700Z,17.26
2022-08-12T22:50:26.830Z,17.08
2022-08-12T22:53:15.431Z,17.03
2022-08-12T22:55:59.781Z,16.96
2022-08-12T22:58:33.854Z,16.91
2022-08-12T23:01:01.850Z,16.90
2022-08-12T23:03:49.259Z,16.82
2022-08-12T23:06:23.165Z,16.82
2022-08-12T23:08:51.139Z,16.75
2022-08-12T23:11:23.724Z,16.65
2022-08-12T23:13:56.034Z,16.74
2022-08-12T23:16:31.809Z,16.61
2022-08-12T23:19:38.031Z,16.66
2022-08-12T23:22:36.326Z,16.79
2022-08-12T23:24:53.688Z,16.78
2022-08-12T23:27:44.060Z,16.69
2022-08-12T23:30:24.615Z,16.68
2022-08-12T23:32:54.546Z,16.54
2022-08-12T23:35:45.642Z,16.44
2022-08-12T23:38:30.179Z,16.41
2022-08-12T23:40:57.186Z,16.27
2022-08-12T23:43:25.562Z,16.25
2022-08-12T23:46:00.300Z,16.23
2022-08-12T23:48:31.364Z,16.16
2022-08-12T23:51:01.570Z,16.10
2022-08-12T23:53:30.935Z,16.18
2022-08-12T23:55:59.611Z,16.14
2022-08-12T23:58:28.262Z,16.18
